Time;durP1;ratioP1;P1;durP2;ratioP2;P2;SDS_P1;SDS_P2;PMS_P1;PMS_P2;Temp;Humidity;BMP_temperature;BMP_pressure;BME280_temperature;BME280_humidity;BME280_pressure;Samples;Min_cycle;Max_cycle;Signal;HPM_P1;HPM_P2
2022/04/29 00:00:26;;;;;;;19.90;12.93;;;11.00;99.90;;;;;;5053745;28;20937;-87
2022/04/29 00:02:53;;;;;;;15.60;12.87;;;10.90;99.90;;;;;;5054234;28;20313;-87
2022/04/29 00:05:24;;;;;;;17.57;13.50;;;10.90;99.90;;;;;;5053720;28;20754;-87
2022/04/29 00:07:53;;;;;;;19.13;13.87;;;10.90;99.90;;;;;;5054362;28;20211;-87
2022/04/29 00:10:31;;;;;;;22.17;13.57;;;10.90;99.90;;;;;;5054168;28;20252;-87
2022/04/29 00:13:05;;;;;;;20.73;12.73;;;10.90;99.90;;;;;;5053570;28;20210;-86
2022/04/29 00:15:34;;;;;;;19.37;12.73;;;10.90;99.90;;;;;;5053646;28;20213;-87
2022/04/29 00:18:09;;;;;;;20.10;13.73;;;10.70;99.90;;;;;;5054202;28;20190;-88
2022/04/29 00:20:39;;;;;;;20.43;13.17;;;10.70;99.90;;;;;;5054078;28;20218;-86
2022/04/29 00:23:12;;;;;;;16.63;13.83;;;10.80;99.90;;;;;;5053802;28;20206;-87
2022/04/29 00:25:41;;;;;;;20.50;15.75;;;10.80;99.90;;;;;;5053411;28;20778;-87
2022/04/29 00:28:10;;;;;;;19.70;13.47;;;10.90;99.90;;;;;;5053063;28;20578;-87
2022/04/29 00:30:42;;;;;;;20.10;14.57;;;11.10;99.90;;;;;;5053510;28;20245;-87
2022/04/29 00:33:12;;;;;;;22.43;14.63;;;10.90;99.90;;;;;;5053681;28;20556;-87
2022/04/29 00:35:45;;;;;;;20.50;14.13;;;10.80;99.90;;;;;;5053788;28;20214;-87
2022/04/29 00:38:15;;;;;;;18.83;14.77;;;10.70;99.90;;;;;;5048829;28;20214;-87
2022/04/29 00:40:46;;;;;;;20.57;14.43;;;10.70;99.90;;;;;;5033496;28;20215;-87
2022/04/29 00:43:23;;;;;;;20.47;13.83;;;10.50;99.90;;;;;;5033419;28;20207;-87
2022/04/29 00:45:53;;;;;;;20.13;15.37;;;10.40;99.90;;;;;;5033677;28;20580;-87
2022/04/29 00:48:21;;;;;;;22.60;15.20;;;10.40;99.90;;;;;;5033496;28;20210;-86
2022/04/29 00:50:54;;;;;;;19.30;14.70;;;10.50;99.90;;;;;;5033945;28;20207;-87
2022/04/29 00:53:27;;;;;;;20.47;15.20;;;10.60;99.90;;;;;;5033662;28;20191;-87
2022/04/29 00:55:58;;;;;;;17.07;13.63;;;10.60;99.90;;;;;;5034157;28;20276;-87
2022/04/29 00:58:34;;;;;;;20.37;14.77;;;10.50;99.90;;;;;;5033340;28;20207;-87
2022/04/29 01:01:04;;;;;;;19.57;14.43;;;10.50;99.90;;;;;;5033532;28;20559;-87
2022/04/29 01:03:33;;;;;;;19.13;13.67;;;10.50;99.90;;;;;;5034447;28;20231;-88
2022/04/29 01:06:06;;;;;;;19.47;14.47;;;10.30;99.90;;;;;;5037760;28;20598;-88
2022/04/29 01:08:39;;;;;;;20.40;14.77;;;10.30;99.90;;;;;;5037625;28;20197;-87
2022/04/29 01:11:06;;;;;;;21.80;14.23;;;10.20;99.90;;;;;;5037480;28;20195;-88
2022/04/29 01:13:40;;;;;;;21.27;13.97;;;10.10;99.90;;;;;;5037191;28;20221;-88
2022/04/29 01:16:08;;;;;;;22.77;14.30;;;10.10;99.90;;;;;;5036911;28;20210;-88
2022/04/29 01:18:38;;;;;;;20.90;14.60;;;10.00;99.90;;;;;;5037229;28;20299;-88
2022/04/29 01:21:10;;;;;;;17.27;13.97;;;10.00;99.90;;;;;;5036752;28;20250;-87
2022/04/29 01:23:41;;;;;;;19.13;14.70;;;10.00;99.90;;;;;;5036902;28;20206;-87
2022/04/29 01:26:16;;;;;;;20.83;14.73;;;10.20;99.90;;;;;;5036464;28;20667;-87
2022/04/29 01:28:46;;;;;;;18.90;15.10;;;10.20;99.90;;;;;;5036969;28;20249;-87
2022/04/29 01:31:23;;;;;;;22.57;15.33;;;10.30;99.90;;;;;;5037028;28;20527;-87
2022/04/29 01:33:51;;;;;;;22.47;15.23;;;10.30;99.90;;;;;;5036983;28;20562;-87
2022/04/29 01:36:18;;;;;;;18.63;14.80;;;10.30;99.90;;;;;;5036923;28;20195;-88
2022/04/29 01:38:52;;;;;;;19.58;17.58;;;10.30;99.90;;;;;;5035910;28;20442;-88
2022/04/29 01:41:19;;;;;;;19.90;15.50;;;10.30;99.90;;;;;;5036672;28;20230;-88
2022/04/29 01:43:52;;;;;;;22.63;15.30;;;10.30;99.90;;;;;;5036410;28;20639;-87
2022/04/29 01:46:19;;;;;;;21.40;16.00;;;10.40;99.90;;;;;;5036697;28;20208;-88
2022/04/29 01:48:47;;;;;;;16.50;14.90;;;10.30;99.90;;;;;;5036305;28;20203;-88
2022/04/29 01:51:16;;;;;;;24.97;16.80;;;10.20;99.90;;;;;;5036724;28;20195;-88
2022/04/29 01:54:11;;;;;;;18.87;14.97;;;10.20;99.90;;;;;;5036728;28;20210;-88
2022/04/29 01:56:44;;;;;;;20.53;14.63;;;10.20;99.90;;;;;;5036677;28;20585;-88
2022/04/29 01:59:14;;;;;;;18.93;14.83;;;10.20;99.90;;;;;;5036719;28;20192;-87
2022/04/29 02:01:43;;;;;;;23.37;15.47;;;10.10;99.90;;;;;;5036371;28;20226;-87
2022/04/29 02:04:10;;;;;;;20.43;15.70;;;10.10;99.90;;;;;;5036545;28;20192;-88
2022/04/29 02:06:40;;;;;;;18.07;15.83;;;10.10;99.90;;;;;;5036171;28;20214;-88
2022/04/29 02:09:14;;;;;;;22.57;15.10;;;10.10;99.90;;;;;;5035940;28;20200;-88
2022/04/29 02:12:03;;;;;;;22.57;16.37;;;10.10;99.90;;;;;;5035988;28;20198;-88
2022/04/29 02:14:31;;;;;;;20.43;16.70;;;10.00;99.90;;;;;;5035311;28;20206;-87
2022/04/29 02:17:01;;;;;;;21.97;16.27;;;10.20;99.90;;;;;;5036183;28;20203;-88
2022/04/29 02:19:29;;;;;;;23.53;17.47;;;10.20;99.90;;;;;;5036071;28;20211;-88
2022/04/29 02:21:57;;;;;;;27.07;16.20;;;10.10;99.90;;;;;;5035958;28;20227;-88
2022/04/29 02:24:28;;;;;;;19.77;16.33;;;9.90;99.90;;;;;;5035988;28;20210;-88
2022/04/29 02:27:02;;;;;;;19.88;17.83;;;9.90;99.90;;;;;;5035956;28;20895;-88
2022/04/29 02:29:35;;;;;;;22.73;17.00;;;9.90;99.90;;;;;;5036052;28;20234;-88
2022/04/29 02:32:04;;;;;;;25.27;17.13;;;9.90;99.90;;;;;;5035769;28;20192;-88
2022/04/29 02:34:32;;;;;;;21.87;17.13;;;10.00;99.90;;;;;;5036044;28;20611;-88
2022/04/29 02:37:00;;;;;;;21.03;17.20;;;9.90;99.90;;;;;;5035978;28;20203;-88
2022/04/29 02:39:34;;;;;;;19.83;17.73;;;9.80;99.90;;;;;;5035442;28;20665;-91
2022/04/29 02:42:03;;;;;;;22.57;18.40;;;9.70;99.90;;;;;;5035536;28;20721;-88
2022/04/29 02:44:31;;;;;;;24.70;17.47;;;9.70;99.90;;;;;;5035705;28;20639;-89
2022/04/29 02:47:10;;;;;;;25.23;16.83;;;9.70;99.90;;;;;;5036073;28;20200;-89
2022/04/29 02:49:39;;;;;;;22.50;17.37;;;9.70;99.90;;;;;;5035981;28;20234;-88
2022/04/29 02:52:07;;;;;;;23.60;20.55;;;9.80;99.90;;;;;;5035153;28;20764;-88
2022/04/29 02:54:36;;;;;;;21.70;17.70;;;9.80;99.90;;;;;;5036649;28;20222;-89
2022/04/29 02:57:03;;;;;;;21.93;17.50;;;9.70;99.90;;;;;;5036514;28;20192;-87
2022/04/29 02:59:30;;;;;;;25.40;17.93;;;9.80;99.90;;;;;;5042848;28;20199;-88
2022/04/29 03:01:57;;;;;;;23.40;17.67;;;9.90;99.90;;;;;;5045915;28;20725;-88
2022/04/29 03:04:24;;;;;;;23.37;16.97;;;9.80;99.90;;;;;;5046178;28;20203;-88
2022/04/29 03:06:52;;;;;;;19.17;17.20;;;9.80;99.90;;;;;;5045493;28;20211;-88
2022/04/29 03:09:20;;;;;;;22.47;16.80;;;9.80;99.90;;;;;;5044588;28;20247;-87
2022/04/29 03:11:48;;;;;;;21.40;17.53;;;9.80;99.90;;;;;;5041599;28;20211;-88
2022/04/29 03:14:17;;;;;;;24.07;17.50;;;9.90;99.90;;;;;;5035023;28;20662;-88
2022/04/29 03:16:44;;;;;;;28.07;17.93;;;9.90;99.90;;;;;;5034508;28;20207;-88
2022/04/29 03:19:14;;;;;;;21.10;16.70;;;9.80;99.90;;;;;;5034893;28;20606;-88
2022/04/29 03:21:42;;;;;;;20.70;16.70;;;9.70;99.90;;;;;;5034234;28;20222;-88
2022/04/29 03:24:09;;;;;;;22.80;17.23;;;9.70;99.90;;;;;;5034607;28;20214;-88
2022/04/29 03:26:37;;;;;;;24.87;18.40;;;9.70;99.90;;;;;;5033958;28;20187;-89
2022/04/29 03:29:08;;;;;;;20.00;17.83;;;9.60;99.90;;;;;;5034417;28;20187;-88
2022/04/29 03:31:41;;;;;;;23.93;17.80;;;9.70;99.90;;;;;;5034187;28;20592;-88
2022/04/29 03:34:09;;;;;;;22.80;18.83;;;9.50;99.90;;;;;;5034333;28;20202;-88
2022/04/29 03:36:39;;;;;;;25.83;18.87;;;9.60;99.90;;;;;;5034544;28;20230;-88
2022/04/29 03:39:11;;;;;;;32.90;18.53;;;9.50;99.90;;;;;;5034906;28;20199;-90
2022/04/29 03:41:38;;;;;;;26.67;22.37;;;9.30;99.90;;;;;;5033504;28;20443;-89
2022/04/29 03:44:12;;;;;;;21.97;18.83;;;9.30;99.90;;;;;;5034718;28;20459;-89
2022/04/29 03:46:45;;;;;;;24.93;18.33;;;9.30;99.90;;;;;;5034901;28;20564;-89
2022/04/29 03:51:57;;;;;;;27.47;17.47;;;9.20;99.90;;;;;;5034136;28;20199;-88
2022/04/29 03:54:24;;;;;;;22.03;17.50;;;9.10;99.90;;;;;;5034242;28;20198;-87
2022/04/29 03:56:52;;;;;;;24.00;17.80;;;9.10;99.90;;;;;;5034559;28;20203;-88
2022/04/29 03:59:26;;;;;;;27.63;19.20;;;9.00;99.90;;;;;;5034236;28;20241;-89
2022/04/29 04:02:01;;;;;;;32.03;17.97;;;9.10;99.90;;;;;;5034506;28;20249;-88
2022/04/29 04:04:30;;;;;;;25.40;18.07;;;9.00;99.90;;;;;;5034475;28;20202;-89
2022/04/29 04:07:04;;;;;;;25.53;18.50;;;8.90;99.90;;;;;;5034219;28;20207;-89
2022/04/29 04:09:34;;;;;;;25.93;18.80;;;8.90;99.90;;;;;;5034009;28;20186;-89
2022/04/29 04:12:01;;;;;;;30.63;18.30;;;8.80;99.90;;;;;;5033857;28;20215;-89
2022/04/29 04:14:30;;;;;;;25.57;17.47;;;8.90;99.90;;;;;;5034025;28;20541;-89
2022/04/29 04:16:58;;;;;;;29.70;17.63;;;8.80;99.90;;;;;;5033624;28;20199;-89
2022/04/29 04:19:27;;;;;;;21.00;16.47;;;9.00;99.90;;;;;;5033729;28;20610;-88
2022/04/29 04:21:56;;;;;;;25.50;18.17;;;9.00;99.90;;;;;;5034210;28;20222;-88
2022/04/29 04:24:23;;;;;;;21.60;17.27;;;9.00;99.90;;;;;;5034026;28;20559;-89
2022/04/29 04:26:52;;;;;;;23.13;17.87;;;9.00;99.90;;;;;;5032646;28;20203;-89
2022/04/29 04:29:21;;;;;;;20.10;17.63;;;9.00;99.90;;;;;;5033991;28;20191;-87
2022/04/29 04:31:55;;;;;;;27.17;17.47;;;9.10;99.90;;;;;;5033636;28;20191;-88
2022/04/29 04:37:07;;;;;;;22.07;17.53;;;9.20;99.90;;;;;;5033452;28;20202;-88
2022/04/29 04:39:40;;;;;;;22.30;17.00;;;9.20;99.90;;;;;;5034513;28;20207;-89
2022/04/29 04:42:08;;;;;;;24.53;18.20;;;9.00;99.90;;;;;;5033965;28;20226;-89
2022/04/29 04:44:35;;;;;;;30.17;17.50;;;9.10;99.90;;;;;;5033452;28;20207;-88
2022/04/29 04:47:07;;;;;;;23.60;17.77;;;9.00;99.90;;;;;;5033592;28;20241;-88
2022/04/29 04:49:40;;;;;;;25.73;18.37;;;8.80;99.90;;;;;;5033379;28;20232;-89
2022/04/29 04:52:08;;;;;;;24.83;17.83;;;8.70;99.90;;;;;;5033417;28;20214;-91
2022/04/29 04:54:35;;;;;;;23.17;17.27;;;8.70;99.90;;;;;;5033551;28;20191;-90
2022/04/29 04:57:05;;;;;;;31.27;17.90;;;8.60;99.90;;;;;;5033501;28;20195;-90
2022/04/29 04:59:33;;;;;;;26.73;17.43;;;8.60;99.90;;;;;;5033667;28;20203;-90
2022/04/29 05:02:03;;;;;;;23.03;17.47;;;8.60;99.90;;;;;;5047420;28;20233;-91
2022/04/29 05:04:37;;;;;;;24.10;17.30;;;8.60;99.90;;;;;;5034235;28;20211;-90
2022/04/29 05:07:05;;;;;;;25.67;17.80;;;8.70;99.90;;;;;;5033497;28;20199;-90
2022/04/29 05:09:32;;;;;;;27.10;17.37;;;8.70;99.90;;;;;;5033452;28;20196;-90
2022/04/29 05:12:02;;;;;;;27.97;16.40;;;8.60;99.90;;;;;;5033147;28;20195;-88
2022/04/29 05:14:29;;;;;;;22.77;16.53;;;8.70;99.90;;;;;;5033137;28;20211;-90
2022/04/29 05:16:59;;;;;;;24.87;16.57;;;8.90;99.90;;;;;;5033306;28;20219;-87
2022/04/29 05:19:32;;;;;;;21.43;16.47;;;8.90;99.90;;;;;;5033469;28;20212;-88
2022/04/29 05:22:01;;;;;;;24.87;15.67;;;8.90;99.90;;;;;;5032911;28;20222;-90
2022/04/29 05:24:29;;;;;;;24.67;15.60;;;8.90;99.90;;;;;;5033295;28;20211;-90
2022/04/29 05:26:57;;;;;;;23.00;15.37;;;9.00;99.90;;;;;;5033104;28;20666;-90
2022/04/29 05:29:24;;;;;;;22.67;15.43;;;9.10;99.90;;;;;;5033295;28;20196;-87
2022/04/29 05:31:50;;;;;;;25.60;15.93;;;9.10;99.90;;;;;;5032894;28;20198;-87
2022/04/29 05:34:23;;;;;;;31.60;17.73;;;9.00;99.90;;;;;;5033263;28;20208;-87
2022/04/29 05:36:50;;;;;;;30.77;18.03;;;9.10;99.90;;;;;;5032675;28;20206;-87
2022/04/29 05:42:15;;;;;;;32.10;16.93;;;9.40;99.90;;;;;;5032976;28;20384;-87
2022/04/29 05:44:48;;;;;;;24.43;14.53;;;9.70;99.90;;;;;;5033281;28;20195;-87
2022/04/29 05:47:15;;;;;;;24.90;14.73;;;9.70;99.90;;;;;;5032723;28;20207;-88
2022/04/29 05:49:43;;;;;;;27.67;14.70;;;9.70;99.90;;;;;;5034143;28;20210;-87
2022/04/29 05:52:10;;;;;;;20.53;14.17;;;9.80;99.90;;;;;;5048855;28;20206;-88
2022/04/29 05:54:39;;;;;;;22.40;14.27;;;9.70;99.90;;;;;;5055638;28;20634;-88
2022/04/29 05:57:07;;;;;;;23.33;13.70;;;9.70;99.90;;;;;;5056825;28;20666;-91
2022/04/29 05:59:36;;;;;;;19.70;13.90;;;9.60;99.90;;;;;;5056459;28;20210;-89
2022/04/29 06:02:05;;;;;;;18.93;14.17;;;9.50;99.90;;;;;;5056258;28;20239;-89
2022/04/29 06:04:31;;;;;;;22.33;14.20;;;9.50;99.90;;;;;;5057165;28;20250;-90
2022/04/29 06:07:05;;;;;;;26.83;14.47;;;9.50;99.90;;;;;;5060534;28;20211;-91
2022/04/29 06:09:40;;;;;;;19.13;15.17;;;9.50;99.90;;;;;;5056763;28;20201;-90
2022/04/29 06:12:13;;;;;;;18.70;15.37;;;9.60;99.90;;;;;;5056937;28;20664;-91
2022/04/29 06:14:43;;;;;;;23.83;15.07;;;9.60;99.90;;;;;;5056666;28;20302;-90
2022/04/29 06:17:11;;;;;;;18.10;14.67;;;9.60;99.90;;;;;;5060105;28;20253;-90
2022/04/29 06:19:40;;;;;;;18.67;13.73;;;9.80;99.90;;;;;;5059297;28;20248;-90
2022/04/29 06:22:07;;;;;;;18.83;14.67;;;9.60;99.90;;;;;;5060846;28;20211;-90
2022/04/29 06:24:34;;;;;;;18.03;14.53;;;9.70;99.90;;;;;;5062627;28;20215;-90
2022/04/29 06:27:07;;;;;;;17.97;14.13;;;9.60;99.90;;;;;;5058952;28;20201;-90
2022/04/29 06:29:37;;;;;;;25.70;14.77;;;9.60;99.90;;;;;;5055938;28;20553;-87
2022/04/29 06:32:04;;;;;;;24.73;13.63;;;9.60;99.90;;;;;;5055757;28;20202;-87
2022/04/29 06:34:34;;;;;;;19.63;13.63;;;9.70;99.90;;;;;;5055590;28;20210;-88
2022/04/29 06:37:07;;;;;;;17.10;13.90;;;9.80;99.90;;;;;;5055979;28;20206;-88
2022/04/29 06:39:34;;;;;;;21.67;14.23;;;9.80;99.90;;;;;;5055761;28;20207;-87
2022/04/29 06:42:03;;;;;;;20.97;13.83;;;9.90;99.90;;;;;;5055269;28;20202;-87
2022/04/29 06:44:30;;;;;;;19.60;13.07;;;10.10;99.90;;;;;;5055510;28;20207;-87
2022/04/29 06:46:57;;;;;;;18.97;13.80;;;10.10;99.90;;;;;;5055319;28;20213;-87
2022/04/29 06:49:30;;;;;;;16.07;12.77;;;10.10;99.90;;;;;;5055341;28;20592;-88
2022/04/29 06:52:03;;;;;;;18.67;14.00;;;10.30;99.90;;;;;;5055168;28;20549;-88
2022/04/29 06:54:36;;;;;;;20.67;13.80;;;10.40;99.90;;;;;;5055545;28;20241;-88
2022/04/29 06:57:09;;;;;;;19.90;14.10;;;10.20;99.90;;;;;;5055838;28;20198;-91
2022/04/29 06:59:42;;;;;;;17.87;13.07;;;10.00;99.90;;;;;;5055343;28;20730;-87
2022/04/29 07:02:09;;;;;;;20.10;13.47;;;10.00;99.90;;;;;;5058152;28;20708;-90
2022/04/29 07:04:38;;;;;;;22.90;13.83;;;9.80;99.90;;;;;;5075158;28;20229;-91
2022/04/29 07:07:11;;;;;;;23.70;14.40;;;9.80;99.90;;;;;;5075368;28;20237;-89
2022/04/29 07:09:44;;;;;;;21.00;14.10;;;9.90;99.90;;;;;;5075241;28;20202;-91
2022/04/29 07:12:18;;;;;;;15.33;13.70;;;10.00;99.90;;;;;;5075238;28;20784;-90
2022/04/29 07:14:52;;;;;;;17.77;13.77;;;10.00;99.90;;;;;;5074443;28;20214;-89
2022/04/29 07:17:20;;;;;;;21.93;13.43;;;10.10;99.90;;;;;;5072197;28;20204;-90
2022/04/29 07:19:49;;;;;;;20.73;14.20;;;10.10;99.90;;;;;;5054394;28;20194;-89
2022/04/29 07:22:17;;;;;;;16.23;13.20;;;10.10;99.90;;;;;;5054182;28;20202;-86
2022/04/29 07:24:44;;;;;;;16.77;12.73;;;10.20;99.90;;;;;;5053536;28;20297;-86
2022/04/29 07:27:13;;;;;;;21.53;13.50;;;10.30;99.90;;;;;;5054035;28;20650;-87
2022/04/29 07:29:41;;;;;;;21.67;14.07;;;10.40;99.90;;;;;;5054107;28;20528;-85
2022/04/29 07:32:09;;;;;;;21.43;14.37;;;10.40;99.90;;;;;;5053833;28;20213;-87
2022/04/29 07:43:03;;;;;;;20.27;14.33;;;10.10;99.90;;;;;;5011202;28;20307;-88
2022/04/29 07:45:32;;;;;;;20.10;16.55;;;9.90;99.90;;;;;;5010597;28;20443;-86
2022/04/29 07:48:00;;;;;;;18.63;14.60;;;10.00;99.90;;;;;;5021333;28;20209;-87
2022/04/29 07:50:29;;;;;;;21.93;14.43;;;9.90;99.90;;;;;;5033583;28;20658;-87
2022/04/29 07:52:57;;;;;;;18.27;14.03;;;10.00;99.90;;;;;;5034189;28;20683;-89
2022/04/29 07:55:24;;;;;;;20.87;14.23;;;9.90;99.90;;;;;;5033994;28;20206;-88
2022/04/29 07:57:51;;;;;;;20.60;15.00;;;10.00;99.90;;;;;;5033469;28;20194;-86
2022/04/29 08:00:19;;;;;;;19.10;14.00;;;9.90;99.90;;;;;;5033782;28;20206;-89
2022/04/29 08:02:47;;;;;;;22.13;14.50;;;10.00;99.90;;;;;;5033852;28;20231;-85
2022/04/29 08:05:14;;;;;;;20.60;13.70;;;9.80;99.90;;;;;;5033644;28;20207;-89
2022/04/29 08:07:41;;;;;;;24.27;14.07;;;9.70;99.90;;;;;;5033924;28;20203;-87
2022/04/29 08:10:09;;;;;;;15.27;13.57;;;9.80;99.90;;;;;;5033655;28;20233;-88
2022/04/29 08:12:39;;;;;;;20.30;14.47;;;9.80;99.90;;;;;;5033004;28;20217;-89
2022/04/29 08:15:07;;;;;;;23.93;14.97;;;10.00;99.90;;;;;;5033925;28;20187;-87
2022/04/29 08:17:34;;;;;;;22.30;15.07;;;9.90;99.90;;;;;;5033630;28;20206;-89
2022/04/29 08:20:02;;;;;;;19.53;14.37;;;10.10;99.90;;;;;;5033495;28;20195;-88
2022/04/29 08:22:31;;;;;;;17.88;15.65;;;10.20;99.90;;;;;;5033309;28;20899;-89
2022/04/29 08:24:58;;;;;;;16.87;14.37;;;10.40;99.90;;;;;;5034301;28;20188;-87
2022/04/29 08:27:28;;;;;;;23.73;15.53;;;10.40;99.90;;;;;;5033815;28;20199;-91
2022/04/29 08:29:56;;;;;;;18.27;13.67;;;10.40;99.90;;;;;;5034573;28;20209;-91
2022/04/29 08:32:23;;;;;;;18.03;13.97;;;10.50;99.90;;;;;;5034849;28;20207;-86
2022/04/29 08:34:50;;;;;;;17.60;13.73;;;10.60;99.90;;;;;;5033278;28;20207;-86
2022/04/29 08:37:19;;;;;;;17.33;12.37;;;10.80;99.90;;;;;;5033182;28;20215;-83
2022/04/29 08:39:46;;;;;;;22.60;13.73;;;10.90;99.90;;;;;;5033362;28;20191;-83
2022/04/29 08:42:14;;;;;;;22.53;13.73;;;10.90;99.90;;;;;;5032838;28;20662;-83
2022/04/29 08:44:42;;;;;;;23.43;14.03;;;10.90;99.90;;;;;;5032791;28;20717;-84
2022/04/29 08:47:09;;;;;;;20.40;14.03;;;11.10;99.90;;;;;;5032850;28;20227;-84
2022/04/29 08:49:36;;;;;;;21.37;14.20;;;11.50;99.90;;;;;;5033041;28;20188;-83
2022/04/29 08:52:04;;;;;;;21.37;13.87;;;11.60;99.90;;;;;;5032652;28;20203;-82
2022/04/29 09:00:04;;;;;;;22.30;14.90;;;12.10;99.90;;;;;;5033098;28;20191;-82
2022/04/29 09:02:39;;;;;;;22.60;14.93;;;12.00;99.90;;;;;;5032459;28;20249;-83
2022/04/29 09:05:09;;;;;;;15.70;13.73;;;12.00;99.90;;;;;;5032625;28;20190;-83
2022/04/29 09:07:57;;;;;;;20.23;13.97;;;11.90;99.90;;;;;;5032667;28;20203;-84
2022/04/29 09:10:28;;;;;;;25.40;14.53;;;11.70;99.90;;;;;;5032478;28;20801;-87
2022/04/29 09:12:55;;;;;;;18.60;14.33;;;11.60;99.90;;;;;;5032688;28;20219;-86
2022/04/29 09:15:23;;;;;;;24.37;14.17;;;11.50;99.90;;;;;;5032916;28;20203;-86
2022/04/29 09:17:51;;;;;;;20.30;14.33;;;11.60;99.90;;;;;;5032632;28;20210;-87
2022/04/29 09:20:21;;;;;;;17.97;13.50;;;11.40;99.90;;;;;;5032951;28;20229;-87
2022/04/29 09:22:50;;;;;;;19.70;14.33;;;11.30;99.90;;;;;;5032639;28;20268;-87
2022/04/29 09:25:17;;;;;;;19.97;14.40;;;11.30;99.90;;;;;;5034609;28;20207;-87
2022/04/29 09:27:59;;;;;;;22.70;14.70;;;11.30;99.90;;;;;;5036514;28;20202;-86
2022/04/29 09:30:38;;;;;;;19.43;14.87;;;11.60;99.90;;;;;;5036359;28;20206;-84
2022/04/29 09:33:05;;;;;;;21.83;14.17;;;11.90;99.90;;;;;;5036528;28;20549;-84
2022/04/29 09:35:39;;;;;;;22.27;14.37;;;12.00;99.90;;;;;;5036221;28;20689;-86
2022/04/29 09:40:50;;;;;;;21.30;16.73;;;12.00;99.90;;;;;;5036030;28;20473;-87
2022/04/29 09:43:31;;;;;;;17.27;14.37;;;12.20;99.90;;;;;;5035811;28;20215;-88
2022/04/29 09:46:10;;;;;;;16.83;14.97;;;12.20;99.90;;;;;;5036170;28;20313;-87
2022/04/29 09:49:02;;;;;;;17.27;14.47;;;12.30;99.90;;;;;;5035798;28;20199;-87
2022/04/29 09:51:57;;;;;;;16.57;14.73;;;12.10;99.90;;;;;;5036247;28;20643;-87
2022/04/29 09:54:26;;;;;;;23.47;14.80;;;12.20;99.90;;;;;;5035740;28;20226;-87
2022/04/29 09:57:08;;;;;;;20.13;14.13;;;12.20;99.90;;;;;;5036087;28;20203;-87
2022/04/29 09:59:38;;;;;;;23.90;14.97;;;12.30;99.90;;;;;;5036000;28;20195;-87
2022/04/29 10:02:06;;;;;;;22.17;15.17;;;12.50;99.90;;;;;;5035890;28;20685;-84
2022/04/29 10:04:36;;;;;;;25.47;15.77;;;12.50;99.90;;;;;;5035967;28;20250;-85
2022/04/29 10:07:04;;;;;;;20.17;15.53;;;12.80;99.90;;;;;;5035557;28;20648;-84
2022/04/29 10:09:33;;;;;;;16.30;14.60;;;12.70;99.90;;;;;;5035843;28;20200;-84
2022/04/29 10:12:03;;;;;;;20.37;14.67;;;12.80;99.90;;;;;;5035534;28;20211;-84
2022/04/29 10:14:31;;;;;;;24.07;14.53;;;12.90;99.90;;;;;;5035546;28;20295;-84
2022/04/29 10:22:37;;;;;;;17.77;15.17;;;13.10;99.90;;;;;;5035208;28;20211;-84
2022/04/29 10:25:08;;;;;;;22.50;16.03;;;13.10;99.90;;;;;;5035443;28;20248;-83
2022/04/29 10:27:37;;;;;;;18.17;14.90;;;13.10;99.90;;;;;;5034314;28;20195;-84
2022/04/29 10:30:05;;;;;;;20.73;15.70;;;13.10;99.90;;;;;;5035461;28;20214;-84
2022/04/29 10:33:00;;;;;;;18.10;14.83;;;13.00;99.90;;;;;;5035317;28;20675;-81
2022/04/29 10:35:54;;;;;;;21.53;15.23;;;13.30;99.90;;;;;;5035513;28;20631;-81
2022/04/29 10:38:25;;;;;;;22.03;15.67;;;13.30;99.90;;;;;;5053510;28;20202;-82
2022/04/29 10:41:14;;;;;;;24.42;18.42;;;13.20;99.90;;;;;;5048961;28;20433;-82
2022/04/29 10:43:45;;;;;;;21.23;16.53;;;13.70;99.90;;;;;;5053944;28;20302;-82
2022/04/29 10:46:23;;;;;;;18.83;15.57;;;13.40;99.90;;;;;;5055075;28;20222;-83
2022/04/29 10:48:53;;;;;;;21.13;15.47;;;13.50;99.90;;;;;;5054503;28;20204;-82
2022/04/29 10:51:42;;;;;;;18.80;15.07;;;13.60;99.90;;;;;;5054378;28;20210;-82
2022/04/29 10:54:09;;;;;;;24.13;15.77;;;13.80;99.90;;;;;;5054266;28;20579;-84
2022/04/29 10:56:37;;;;;;;18.43;14.83;;;14.00;99.90;;;;;;5054570;28;20200;-80
2022/04/29 10:59:19;;;;;;;18.10;15.37;;;14.00;99.90;;;;;;5043198;28;20267;-83
2022/04/29 11:01:51;;;;;;;27.33;17.10;;;14.00;99.90;;;;;;5055026;28;20261;-85
2022/04/29 11:04:45;;;;;;;21.40;16.10;;;14.10;99.90;;;;;;5054441;28;20227;-85
2022/04/29 11:07:44;;;;;;;23.80;16.53;;;13.80;99.90;;;;;;5049368;28;20206;-84
2022/04/29 11:10:19;;;;;;;21.03;15.83;;;13.90;99.90;;;;;;5054395;28;20211;-78
2022/04/29 11:13:03;;;;;;;21.23;16.47;;;14.00;99.90;;;;;;5054726;28;20201;-81
2022/04/29 11:15:44;;;;;;;18.23;15.37;;;14.30;99.90;;;;;;5054716;28;20194;-82
2022/04/29 11:18:18;;;;;;;23.73;17.17;;;14.60;99.90;;;;;;5054395;28;20212;-84
2022/04/29 11:20:49;;;;;;;22.40;18.98;;;14.60;99.90;;;;;;5051379;28;20912;-83
2022/04/29 11:26:10;;;;;;;20.20;17.20;;;14.60;99.90;;;;;;5051956;28;20351;-80
2022/04/29 11:28:37;;;;;;;20.70;16.87;;;14.70;99.90;;;;;;5054176;28;20234;-81
2022/04/29 11:31:05;;;;;;;20.93;17.03;;;14.80;99.90;;;;;;5053856;28;20610;-83
2022/04/29 11:33:32;;;;;;;24.87;17.00;;;15.20;99.90;;;;;;5053881;28;20199;-80
2022/04/29 11:36:08;;;;;;;19.23;16.63;;;15.30;99.90;;;;;;5053394;28;20202;-79
2022/04/29 11:38:41;;;;;;;22.57;16.87;;;15.50;99.90;;;;;;5053896;28;20201;-84
2022/04/29 11:41:16;;;;;;;21.10;19.07;;;15.10;99.90;;;;;;5051452;28;20426;-83
2022/04/29 11:43:46;;;;;;;19.37;17.27;;;15.30;99.90;;;;;;5037973;28;20472;-80
2022/04/29 11:46:13;;;;;;;23.23;16.90;;;15.30;99.90;;;;;;5052569;28;20199;-82
2022/04/29 11:48:51;;;;;;;24.00;17.90;;;15.30;99.90;;;;;;5049178;28;20215;-81
2022/04/29 11:51:19;;;;;;;23.53;17.70;;;15.30;99.90;;;;;;5052492;28;20226;-80
2022/04/29 11:53:57;;;;;;;20.60;17.60;;;15.50;99.90;;;;;;5052684;28;20199;-83
2022/04/29 11:56:24;;;;;;;18.63;16.80;;;15.80;99.90;;;;;;5052539;28;20215;-80
2022/04/29 11:58:52;;;;;;;18.80;16.67;;;15.90;99.90;;;;;;5052730;28;20223;-80
2022/04/29 12:01:20;;;;;;;21.73;19.15;;;16.20;99.90;;;;;;5051638;28;20858;-80
2022/04/29 12:03:48;;;;;;;20.17;18.00;;;16.30;99.90;;;;;;5052250;28;20253;-80
2022/04/29 12:06:16;;;;;;;21.37;17.10;;;15.90;99.90;;;;;;5052115;28;20713;-81
2022/04/29 12:08:45;;;;;;;24.20;17.07;;;16.10;99.90;;;;;;5052801;28;20258;-82
2022/04/29 12:11:12;;;;;;;18.67;16.67;;;15.80;99.90;;;;;;5051743;28;20266;-82
2022/04/29 12:13:39;;;;;;;24.30;17.63;;;15.80;99.90;;;;;;5051403;28;20215;-83
2022/04/29 12:16:06;;;;;;;18.23;16.23;;;15.70;99.90;;;;;;5051724;28;20282;-81
2022/04/29 12:18:44;;;;;;;22.83;17.80;;;15.60;99.90;;;;;;5051723;28;20290;-81
2022/04/29 12:21:11;;;;;;;21.00;16.47;;;15.60;99.90;;;;;;5053065;28;20719;-85
2022/04/29 12:23:37;;;;;;;27.43;16.90;;;15.70;99.90;;;;;;5052823;28;20214;-83
2022/04/29 12:26:07;;;;;;;21.37;17.00;;;15.70;99.90;;;;;;5052834;28;20215;-80
2022/04/29 12:28:37;;;;;;;25.20;17.53;;;15.80;99.90;;;;;;5053099;28;20203;-83
2022/04/29 12:36:50;;;;;;;20.53;17.57;;;15.30;99.90;;;;;;5053107;28;20240;-83
2022/04/29 12:39:20;;;;;;;24.47;18.57;;;15.30;99.90;;;;;;5052801;28;20197;-82
2022/04/29 12:42:01;;;;;;;23.60;18.47;;;15.20;99.90;;;;;;5051905;28;20202;-83
2022/04/29 12:47:24;;;;;;;18.73;16.43;;;15.50;99.90;;;;;;5052459;28;20244;-83
2022/04/29 12:49:51;;;;;;;26.50;17.93;;;15.60;99.90;;;;;;5053026;28;20289;-79
2022/04/29 12:52:18;;;;;;;19.13;16.50;;;15.50;99.90;;;;;;5052753;28;20211;-82
2022/04/29 12:54:45;;;;;;;23.93;17.73;;;15.70;99.90;;;;;;5052892;28;20581;-81
2022/04/29 12:57:13;;;;;;;21.13;17.37;;;15.70;99.90;;;;;;5052627;28;20261;-81
2022/04/29 12:59:40;;;;;;;22.95;18.98;;;15.70;99.90;;;;;;5055258;28;20476;-83
2022/04/29 13:02:08;;;;;;;23.33;18.73;;;15.80;99.90;;;;;;5056302;28;20670;-81
2022/04/29 13:04:35;;;;;;;21.43;18.43;;;16.00;99.90;;;;;;5056718;28;20234;-82
2022/04/29 13:07:02;;;;;;;23.87;17.97;;;15.90;99.90;;;;;;5056940;28;20203;-82
2022/04/29 13:09:31;;;;;;;21.67;17.40;;;15.90;99.90;;;;;;5056773;28;20191;-84
2022/04/29 13:11:59;;;;;;;22.60;17.23;;;16.10;99.90;;;;;;5056449;28;20187;-82
2022/04/29 13:14:27;;;;;;;29.53;18.60;;;16.50;99.90;;;;;;5056593;28;20220;-82
2022/04/29 13:16:54;;;;;;;23.90;19.07;;;16.50;99.90;;;;;;5056512;28;20647;-81
2022/04/29 13:19:20;;;;;;;21.10;17.90;;;16.30;99.90;;;;;;5061279;28;20905;-83
2022/04/29 13:21:47;;;;;;;26.50;18.63;;;16.30;99.90;;;;;;5065579;28;20215;-82
2022/04/29 13:24:14;;;;;;;20.63;17.70;;;16.30;99.90;;;;;;5061614;28;20230;-81
2022/04/29 13:26:41;;;;;;;24.27;17.33;;;16.50;99.90;;;;;;5067454;28;20215;-82
2022/04/29 13:29:08;;;;;;;22.97;18.07;;;16.70;99.90;;;;;;5065280;28;20198;-80